createdAt,value
2017-08-09T00:01:36.924Z,14.70
2017-08-09T00:04:04.832Z,14.70
2017-08-09T00:06:40.341Z,14.60
2017-08-09T00:09:09.569Z,14.60
2017-08-09T00:11:45.185Z,14.60
2017-08-09T00:14:13.096Z,14.60
2017-08-09T00:16:42.463Z,14.60
2017-08-09T00:19:10.043Z,14.60
2017-08-09T00:21:39.425Z,14.60
2017-08-09T00:24:09.132Z,14.60
2017-08-09T00:26:37.890Z,14.60
2017-08-09T00:29:06.289Z,14.60
2017-08-09T00:31:34.909Z,14.60
2017-08-09T00:34:02.750Z,14.60
2017-08-09T00:36:31.541Z,14.70
2017-08-09T00:38:59.612Z,14.70
2017-08-09T00:41:27.734Z,14.70
2017-08-09T00:43:58.122Z,14.70
2017-08-09T00:46:27.804Z,14.70
2017-08-09T00:49:00.197Z,14.70
2017-08-09T00:51:28.347Z,14.70
2017-08-09T00:53:56.673Z,14.80
2017-08-09T00:56:24.437Z,14.70
2017-08-09T00:58:51.972Z,14.70
2017-08-09T01:01:22.110Z,14.80
2017-08-09T01:03:50.453Z,14.70
2017-08-09T01:06:18.035Z,14.70
2017-08-09T01:08:46.589Z,14.80
2017-08-09T01:11:21.370Z,14.70
2017-08-09T01:13:50.215Z,14.80
2017-08-09T01:16:17.756Z,14.80
2017-08-09T01:18:47.334Z,14.80
2017-08-09T01:21:16.892Z,14.80
2017-08-09T01:23:45.465Z,14.80
2017-08-09T01:26:13.409Z,14.80
2017-08-09T01:28:42.067Z,14.90
2017-08-09T01:31:09.600Z,14.90
2017-08-09T01:33:37.533Z,14.90
2017-08-09T01:36:06.273Z,14.90
2017-08-09T01:41:24.961Z,14.90
2017-08-09T01:43:52.929Z,15.00
2017-08-09T01:46:20.457Z,15.00
2017-08-09T01:48:48.330Z,15.00
2017-08-09T01:51:21.563Z,15.00
2017-08-09T01:53:52.543Z,15.00
2017-08-09T01:56:22.681Z,14.90
2017-08-09T01:58:50.998Z,14.90
2017-08-09T02:01:21.822Z,14.90
2017-08-09T02:03:49.447Z,14.90
2017-08-09T02:06:16.985Z,14.90
2017-08-09T02:08:45.767Z,14.90
2017-08-09T02:11:13.661Z,14.80
2017-08-09T02:13:43.026Z,14.80
2017-08-09T02:16:12.993Z,14.80
2017-08-09T02:18:41.377Z,14.80
2017-08-09T02:21:10.117Z,14.80
2017-08-09T02:23:38.546Z,14.80
2017-08-09T02:28:56.597Z,14.80
2017-08-09T02:31:24.168Z,14.80
2017-08-09T02:33:52.477Z,14.80
2017-08-09T02:36:22.113Z,14.80
2017-08-09T02:38:49.650Z,14.80
2017-08-09T02:41:22.591Z,14.80
2017-08-09T02:43:50.131Z,14.80
2017-08-09T02:46:18.265Z,14.80
2017-08-09T02:48:47.529Z,14.70
2017-08-09T02:51:15.736Z,14.80
2017-08-09T02:53:46.169Z,14.70
2017-08-09T02:56:14.582Z,14.80
2017-08-09T02:58:42.128Z,14.80
2017-08-09T03:01:09.665Z,14.70
2017-08-09T03:03:39.323Z,14.70
2017-08-09T03:06:06.853Z,14.70
2017-08-09T03:08:36.074Z,14.80
2017-08-09T03:11:04.372Z,14.80
2017-08-09T03:13:33.242Z,14.80
2017-08-09T03:16:02.153Z,14.80
2017-08-09T03:18:32.737Z,14.80
2017-08-09T03:21:00.269Z,14.80
2017-08-09T03:23:29.313Z,14.90
2017-08-09T03:25:58.027Z,14.90
2017-08-09T03:28:25.561Z,14.90
2017-08-09T03:30:54.299Z,14.90
2017-08-09T03:33:22.896Z,14.90
2017-08-09T03:35:50.432Z,14.90
2017-08-09T03:38:18.080Z,14.90
2017-08-09T03:40:46.270Z,14.90
2017-08-09T03:43:14.121Z,15.00
2017-08-09T03:45:41.748Z,15.00
2017-08-09T03:48:09.281Z,15.00
2017-08-09T03:50:37.582Z,15.00
2017-08-09T03:53:05.521Z,15.00
2017-08-09T03:55:33.822Z,15.00
2017-08-09T03:58:02.619Z,15.00
2017-08-09T04:00:30.722Z,15.00
2017-08-09T04:02:58.697Z,15.00
2017-08-09T04:05:27.178Z,15.00
2017-08-09T04:07:55.564Z,15.00
2017-08-09T04:10:24.345Z,15.00
2017-08-09T04:12:53.257Z,15.00
2017-08-09T04:15:22.169Z,15.00
2017-08-09T04:17:51.636Z,15.00
2017-08-09T04:20:20.044Z,15.00
2017-08-09T04:22:47.581Z,15.00
2017-08-09T04:25:15.165Z,15.00
2017-08-09T04:27:43.153Z,15.00
2017-08-09T04:30:12.212Z,14.90
2017-08-09T04:32:40.463Z,14.90
2017-08-09T04:35:08.789Z,14.90
2017-08-09T04:37:38.392Z,15.00
2017-08-09T04:40:08.389Z,14.90
2017-08-09T04:42:36.589Z,14.90
2017-08-09T04:45:05.445Z,14.90
2017-08-09T04:47:33.837Z,14.90
2017-08-09T04:50:01.794Z,14.90
2017-08-09T04:52:29.337Z,14.90
2017-08-09T04:55:00.404Z,14.90
2017-08-09T04:57:29.340Z,14.90
2017-08-09T04:59:57.771Z,14.90
2017-08-09T05:02:25.307Z,14.90
2017-08-09T05:04:53.918Z,14.90
2017-08-09T05:07:22.829Z,14.90
2017-08-09T05:09:52.928Z,14.90
2017-08-09T05:12:24.305Z,14.90
2017-08-09T05:14:54.121Z,15.00
2017-08-09T05:17:22.770Z,15.00
2017-08-09T05:19:50.951Z,15.00
2017-08-09T05:22:18.504Z,15.00
2017-08-09T05:24:47.696Z,15.00
2017-08-09T05:27:15.861Z,15.00
2017-08-09T05:29:48.357Z,15.00
2017-08-09T05:32:16.644Z,15.00
2017-08-09T05:34:45.053Z,15.00
2017-08-09T05:37:13.120Z,15.00
2017-08-09T05:39:42.055Z,15.00
2017-08-09T05:42:09.589Z,15.00
2017-08-09T05:44:38.209Z,15.00
2017-08-09T05:47:06.181Z,15.00
2017-08-09T05:49:34.676Z,15.00
2017-08-09T05:52:02.224Z,15.10
2017-08-09T05:54:30.276Z,15.10
2017-08-09T05:56:57.810Z,15.10
2017-08-09T05:59:26.104Z,15.10
2017-08-09T06:01:54.052Z,15.10
2017-08-09T06:04:25.305Z,15.10
2017-08-09T06:06:53.638Z,15.10
2017-08-09T06:09:21.172Z,15.10
2017-08-09T06:11:49.559Z,15.10
2017-08-09T06:14:17.093Z,15.10
2017-08-09T06:16:46.017Z,15.20
2017-08-09T06:19:14.469Z,15.20
2017-08-09T06:21:42.846Z,15.20
2017-08-09T06:24:10.417Z,15.20
2017-08-09T06:26:39.526Z,15.30
2017-08-09T06:29:08.020Z,15.30
2017-08-09T06:31:35.554Z,15.30
2017-08-09T06:34:04.920Z,15.40
2017-08-09T06:36:33.372Z,15.50
2017-08-09T06:39:01.233Z,15.50
2017-08-09T06:41:29.570Z,15.50
2017-08-09T06:43:57.480Z,15.60
2017-08-09T06:46:25.018Z,15.70
2017-08-09T06:48:52.560Z,15.70
2017-08-09T06:51:22.865Z,15.80
2017-08-09T06:53:51.973Z,16.00
2017-08-09T06:56:21.597Z,15.90
2017-08-09T06:58:52.773Z,16.00
2017-08-09T07:01:20.925Z,16.10
2017-08-09T07:03:52.345Z,16.10
2017-08-09T07:06:20.812Z,16.30
2017-08-09T07:08:48.358Z,16.30
2017-08-09T07:11:16.736Z,16.50
2017-08-09T07:13:47.042Z,16.50
2017-08-09T07:16:15.365Z,16.60
2017-08-09T07:18:46.172Z,16.60
2017-08-09T07:21:13.703Z,16.60
2017-08-09T07:23:41.997Z,16.60
2017-08-09T07:26:11.513Z,16.70
2017-08-09T07:28:43.688Z,16.70
2017-08-09T07:31:12.721Z,16.80
2017-08-09T07:33:41.041Z,17.00
2017-08-09T07:36:08.837Z,17.10
2017-08-09T07:38:39.325Z,17.20
2017-08-09T07:41:06.867Z,17.20
2017-08-09T07:43:34.396Z,17.20
2017-08-09T07:46:03.041Z,17.20
2017-08-09T07:48:30.902Z,17.20
2017-08-09T07:50:58.436Z,17.30
2017-08-09T07:53:27.045Z,17.30
2017-08-09T07:55:54.613Z,17.30
2017-08-09T07:58:23.091Z,17.40
2017-08-09T08:00:50.680Z,17.50
2017-08-09T08:03:18.503Z,17.50
2017-08-09T08:05:46.481Z,17.60
2017-08-09T08:08:16.234Z,17.90
2017-08-09T08:10:44.537Z,18.10
2017-08-09T08:13:16.025Z,18.10
2017-08-09T08:15:45.161Z,18.20
2017-08-09T08:18:14.446Z,18.20
2017-08-09T08:20:41.985Z,18.20
2017-08-09T08:23:11.205Z,18.30
2017-08-09T08:25:39.968Z,18.40
2017-08-09T08:28:10.397Z,18.50
2017-08-09T08:30:37.990Z,18.50
2017-08-09T08:33:06.210Z,18.50
2017-08-09T08:35:33.784Z,18.40
2017-08-09T08:38:02.135Z,18.40
2017-08-09T08:40:29.680Z,18.50
2017-08-09T08:42:57.222Z,18.60
2017-08-09T08:45:27.674Z,18.90
2017-08-09T08:47:55.819Z,18.90
2017-08-09T08:50:24.132Z,19.20
2017-08-09T08:52:52.396Z,19.10
2017-08-09T08:55:21.862Z,19.30
2017-08-09T08:57:49.401Z,19.30
2017-08-09T09:00:17.140Z,19.30
2017-08-09T09:02:44.726Z,19.30
2017-08-09T09:05:13.744Z,19.50
2017-08-09T09:07:41.429Z,19.40
2017-08-09T09:10:10.554Z,19.60
2017-08-09T09:12:40.246Z,19.60
2017-08-09T09:15:11.794Z,19.60
2017-08-09T09:17:39.649Z,19.60
2017-08-09T09:20:08.298Z,19.50
2017-08-09T09:22:36.743Z,19.50
2017-08-09T09:25:05.512Z,19.50
2017-08-09T09:27:33.118Z,19.40
2017-08-09T09:30:01.221Z,19.40
2017-08-09T09:32:28.810Z,19.40
2017-08-09T09:34:57.132Z,19.40
2017-08-09T09:37:24.857Z,19.40
2017-08-09T09:39:52.400Z,19.40
2017-08-09T09:42:21.658Z,19.50
2017-08-09T09:44:49.217Z,19.60
2017-08-09T09:47:16.761Z,19.70
2017-08-09T09:49:48.754Z,19.70
2017-08-09T09:52:16.290Z,19.90
2017-08-09T09:54:44.537Z,20.10
2017-08-09T09:57:14.117Z,20.40
2017-08-09T09:59:41.970Z,20.50
2017-08-09T10:02:09.510Z,20.50
2017-08-09T10:04:38.135Z,20.60
2017-08-09T10:07:12.374Z,20.60
2017-08-09T10:09:39.910Z,20.70
2017-08-09T10:12:08.267Z,20.80
2017-08-09T10:14:37.973Z,20.90
2017-08-09T10:17:05.927Z,21.10
2017-08-09T10:19:34.302Z,21.10
2017-08-09T10:22:01.846Z,21.00
2017-08-09T10:24:29.974Z,20.90
2017-08-09T10:26:59.278Z,20.90
2017-08-09T10:29:28.822Z,20.80
2017-08-09T10:32:02.673Z,20.80
2017-08-09T10:34:30.215Z,20.80
2017-08-09T10:36:58.609Z,20.70
2017-08-09T10:39:26.862Z,20.70
2017-08-09T10:41:54.850Z,20.60
2017-08-09T10:44:22.398Z,20.60
2017-08-09T10:46:49.936Z,20.70
2017-08-09T10:49:18.530Z,20.90
2017-08-09T10:51:47.451Z,21.10
2017-08-09T10:54:15.823Z,21.20
2017-08-09T10:56:46.182Z,21.20
2017-08-09T10:59:15.327Z,21.30
2017-08-09T11:01:43.136Z,21.40
2017-08-09T11:04:10.673Z,21.30
2017-08-09T11:06:38.353Z,21.30
2017-08-09T11:09:14.949Z,21.30
2017-08-09T11:11:48.406Z,21.50
2017-08-09T11:14:18.847Z,21.60
2017-08-09T11:16:46.379Z,21.70
2017-08-09T11:19:14.262Z,21.80
2017-08-09T11:21:42.313Z,21.80
2017-08-09T11:24:10.645Z,21.70
2017-08-09T11:26:38.350Z,21.70
2017-08-09T11:29:07.110Z,21.80
2017-08-09T11:31:35.822Z,21.80
2017-08-09T11:34:08.238Z,22.00
2017-08-09T11:36:35.779Z,22.20
2017-08-09T11:39:03.661Z,22.40
2017-08-09T11:41:31.821Z,22.40
2017-08-09T11:43:59.353Z,22.50
2017-08-09T11:46:29.649Z,22.60
2017-08-09T11:48:57.228Z,22.80
2017-08-09T11:51:26.165Z,22.90
2017-08-09T11:53:54.857Z,22.90
2017-08-09T11:56:23.423Z,23.10
2017-08-09T11:58:51.050Z,23.20
2017-08-09T12:01:19.557Z,23.20
2017-08-09T12:03:48.183Z,23.20
2017-08-09T12:06:17.373Z,23.30
2017-08-09T12:08:45.478Z,23.30
2017-08-09T12:11:13.914Z,23.30
2017-08-09T12:13:43.524Z,23.20
2017-08-09T12:16:11.678Z,22.90
2017-08-09T12:18:40.086Z,22.80
2017-08-09T12:21:07.661Z,22.80
2017-08-09T12:23:37.921Z,22.90
2017-08-09T12:26:05.994Z,23.00
2017-08-09T12:28:35.238Z,23.10
2017-08-09T12:31:03.514Z,23.10
2017-08-09T12:33:31.051Z,23.20
2017-08-09T12:35:59.413Z,23.20
2017-08-09T12:38:29.767Z,23.10
2017-08-09T12:40:58.161Z,23.00
2017-08-09T12:43:26.669Z,23.00
2017-08-09T12:45:55.937Z,23.10
2017-08-09T12:48:25.818Z,23.20
2017-08-09T12:50:53.393Z,23.20
2017-08-09T12:53:21.497Z,23.20
2017-08-09T12:55:49.949Z,23.30
2017-08-09T12:58:17.490Z,23.40
2017-08-09T13:00:45.074Z,23.40
2017-08-09T13:03:13.398Z,23.50
2017-08-09T13:05:41.237Z,23.50
2017-08-09T13:08:14.114Z,23.50
2017-08-09T13:10:42.839Z,23.50
2017-08-09T13:13:12.214Z,23.70
2017-08-09T13:15:41.064Z,23.90
2017-08-09T13:18:09.485Z,23.90
2017-08-09T13:20:40.930Z,24.00
2017-08-09T13:23:09.754Z,24.20
2017-08-09T13:25:37.297Z,24.40
2017-08-09T13:28:08.529Z,24.50
2017-08-09T13:30:36.682Z,24.70
2017-08-09T13:33:05.833Z,24.80
2017-08-09T13:35:35.786Z,24.80
2017-08-09T13:38:03.318Z,24.80
2017-08-09T13:40:32.068Z,24.70
2017-08-09T13:43:01.971Z,24.70
2017-08-09T13:45:30.723Z,24.70
2017-08-09T13:47:59.100Z,24.70
2017-08-09T13:50:27.021Z,24.80
2017-08-09T13:52:54.549Z,24.90
2017-08-09T13:55:22.185Z,25.10
2017-08-09T13:57:50.994Z,25.30
2017-08-09T14:00:18.585Z,25.30
2017-08-09T14:02:46.854Z,25.20
2017-08-09T14:05:14.833Z,25.20
2017-08-09T14:07:43.062Z,25.40
2017-08-09T14:10:10.732Z,25.50
2017-08-09T14:12:38.931Z,25.70
2017-08-09T14:15:06.913Z,25.80
2017-08-09T14:17:35.025Z,25.80
2017-08-09T14:20:05.639Z,25.80
2017-08-09T14:22:34.821Z,25.80
2017-08-09T14:25:03.553Z,25.90
2017-08-09T14:27:31.846Z,25.90
2017-08-09T14:30:00.119Z,26.00
2017-08-09T14:32:27.945Z,26.10
2017-08-09T14:34:55.477Z,26.20
2017-08-09T14:37:23.794Z,26.20
2017-08-09T14:39:52.981Z,25.90
2017-08-09T14:42:20.518Z,25.90
2017-08-09T14:44:49.292Z,25.90
2017-08-09T14:47:16.826Z,25.90
2017-08-09T14:49:44.965Z,25.90
2017-08-09T14:52:12.500Z,26.00
2017-08-09T14:54:40.078Z,25.90
2017-08-09T14:57:08.623Z,26.00
2017-08-09T14:59:38.095Z,26.10
2017-08-09T15:02:06.563Z,26.10
2017-08-09T15:04:34.137Z,26.00
2017-08-09T15:07:05.558Z,25.80
2017-08-09T15:09:33.723Z,25.80
2017-08-09T15:12:01.982Z,25.70
2017-08-09T15:14:29.793Z,25.60
2017-08-09T15:16:58.232Z,25.50
2017-08-09T15:19:25.807Z,25.40
2017-08-09T15:21:54.792Z,25.50
2017-08-09T15:24:22.489Z,25.60
2017-08-09T15:26:51.963Z,25.80
2017-08-09T15:29:21.149Z,25.80
2017-08-09T15:31:50.921Z,25.90
2017-08-09T15:34:18.516Z,25.90
2017-08-09T15:36:46.427Z,26.00
2017-08-09T15:39:14.589Z,26.10
2017-08-09T15:41:49.606Z,26.10
2017-08-09T15:44:17.138Z,26.20
2017-08-09T15:46:44.901Z,26.30
2017-08-09T15:49:13.214Z,26.30
2017-08-09T15:51:40.749Z,26.50
2017-08-09T15:54:09.448Z,26.60
2017-08-09T15:56:38.449Z,26.80
2017-08-09T15:59:06.810Z,26.90
2017-08-09T16:01:36.328Z,27.00
2017-08-09T16:04:03.865Z,27.00
2017-08-09T16:06:33.214Z,26.80
2017-08-09T16:09:02.286Z,26.80
2017-08-09T16:11:31.111Z,26.60
2017-08-09T16:14:00.254Z,26.20
2017-08-09T16:16:27.893Z,26.10
2017-08-09T16:18:56.994Z,26.00
2017-08-09T16:21:25.489Z,25.80
2017-08-09T16:23:53.734Z,25.70
2017-08-09T16:26:23.470Z,25.30
2017-08-09T16:28:51.679Z,25.30
2017-08-09T16:31:19.254Z,25.20
2017-08-09T16:33:47.407Z,25.10
2017-08-09T16:36:15.306Z,24.90
2017-08-09T16:38:43.607Z,24.80
2017-08-09T16:41:15.096Z,24.50
2017-08-09T16:43:42.633Z,24.50
2017-08-09T16:46:12.078Z,24.40
2017-08-09T16:48:41.198Z,24.30
2017-08-09T16:51:09.529Z,24.20
2017-08-09T16:53:38.041Z,24.00
2017-08-09T16:56:07.758Z,23.70
2017-08-09T16:58:35.613Z,23.70
2017-08-09T17:01:03.621Z,23.60
2017-08-09T17:03:32.628Z,23.40
2017-08-09T17:06:01.081Z,23.40
2017-08-09T17:08:28.621Z,23.30
2017-08-09T17:10:56.333Z,23.30
2017-08-09T17:13:26.183Z,23.20
2017-08-09T17:15:54.060Z,23.10
2017-08-09T17:18:21.649Z,23.00
2017-08-09T17:20:49.886Z,23.00
2017-08-09T17:23:17.429Z,23.00
2017-08-09T17:25:48.081Z,23.00
2017-08-09T17:28:15.616Z,22.90
2017-08-09T17:30:43.153Z,22.90
2017-08-09T17:35:46.896Z,22.80
2017-08-09T17:38:14.426Z,22.70
2017-08-09T17:40:41.996Z,22.70
2017-08-09T17:43:10.842Z,22.70
2017-08-09T17:45:39.017Z,22.60
2017-08-09T17:48:06.556Z,22.60
2017-08-09T17:50:35.193Z,22.50
2017-08-09T17:53:04.532Z,22.60
2017-08-09T17:55:33.766Z,22.60
2017-08-09T17:58:03.078Z,22.50
2017-08-09T18:00:30.622Z,22.40
2017-08-09T18:02:59.122Z,22.40
2017-08-09T18:05:26.719Z,22.30
2017-08-09T18:07:56.817Z,22.30
2017-08-09T18:10:25.265Z,22.30
2017-08-09T18:12:53.728Z,22.10
2017-08-09T18:15:22.133Z,22.10
2017-08-09T18:17:52.801Z,22.00
2017-08-09T18:20:22.417Z,21.80
2017-08-09T18:22:50.769Z,21.70
2017-08-09T18:25:19.126Z,21.70
2017-08-09T18:27:47.977Z,21.40
2017-08-09T18:30:15.567Z,21.40
2017-08-09T18:32:43.262Z,21.30
2017-08-09T18:35:11.938Z,21.10
2017-08-09T18:37:40.306Z,20.90
2017-08-09T18:40:07.903Z,20.90
2017-08-09T18:42:35.757Z,20.90
2017-08-09T18:45:03.300Z,20.80
2017-08-09T18:47:31.686Z,20.80
2017-08-09T18:50:00.787Z,20.80
2017-08-09T18:52:29.066Z,20.70
2017-08-09T18:54:57.434Z,20.70
2017-08-09T18:57:29.470Z,20.70
2017-08-09T18:59:57.834Z,20.60
2017-08-09T19:02:26.521Z,20.50
2017-08-09T19:04:54.190Z,20.40
2017-08-09T19:07:22.227Z,20.40
2017-08-09T19:09:52.091Z,20.30
2017-08-09T19:12:19.642Z,20.20
2017-08-09T19:14:52.357Z,20.10
2017-08-09T19:17:19.921Z,20.00
2017-08-09T19:19:48.249Z,20.00
2017-08-09T19:22:16.766Z,19.90
2017-08-09T19:24:44.309Z,19.90
2017-08-09T19:27:11.848Z,19.80
2017-08-09T19:29:40.669Z,19.70
2017-08-09T19:32:08.201Z,19.70
2017-08-09T19:34:36.819Z,19.70
2017-08-09T19:37:04.987Z,19.60
2017-08-09T19:39:32.591Z,19.50
2017-08-09T19:42:01.472Z,19.50
2017-08-09T19:44:31.041Z,19.30
2017-08-09T19:46:58.583Z,19.30
2017-08-09T19:49:29.848Z,19.20
2017-08-09T19:52:03.090Z,19.20
2017-08-09T19:54:30.821Z,19.20
2017-08-09T19:56:59.293Z,19.10
2017-08-09T19:59:28.074Z,19.00
2017-08-09T20:01:56.361Z,18.90
2017-08-09T20:04:24.508Z,18.90
2017-08-09T20:06:52.402Z,18.80
2017-08-09T20:09:20.202Z,18.80
2017-08-09T20:11:47.822Z,18.60
2017-08-09T20:14:15.362Z,18.60
2017-08-09T20:16:43.225Z,18.60
2017-08-09T20:19:10.773Z,18.50
2017-08-09T20:21:39.750Z,18.50
2017-08-09T20:24:13.618Z,18.40
2017-08-09T20:26:41.642Z,18.40
2017-08-09T20:29:09.189Z,18.30
2017-08-09T20:31:38.516Z,18.30
2017-08-09T20:34:06.208Z,18.30
2017-08-09T20:36:33.818Z,18.20
2017-08-09T20:39:01.361Z,18.20
2017-08-09T20:41:35.758Z,18.10
2017-08-09T20:44:04.324Z,18.10
2017-08-09T20:46:32.498Z,18.10
2017-08-09T20:49:00.037Z,18.00
2017-08-09T20:51:28.557Z,18.00
2017-08-09T20:53:56.420Z,18.00
2017-08-09T20:56:24.753Z,18.00
2017-08-09T20:58:53.327Z,18.00
2017-08-09T21:01:21.669Z,17.90
2017-08-09T21:03:49.206Z,17.90
2017-08-09T21:06:17.096Z,17.90
2017-08-09T21:08:45.789Z,17.80
2017-08-09T21:11:14.105Z,17.80
2017-08-09T21:13:41.650Z,17.80
2017-08-09T21:16:11.584Z,17.70
2017-08-09T21:18:40.153Z,17.70
2017-08-09T21:21:09.316Z,17.70
2017-08-09T21:23:36.854Z,17.70
2017-08-09T21:26:05.881Z,17.70
2017-08-09T21:28:33.413Z,17.70
2017-08-09T21:31:02.259Z,17.70
2017-08-09T21:33:29.921Z,17.60
2017-08-09T21:35:58.893Z,17.60
2017-08-09T21:38:27.027Z,17.60
2017-08-09T21:40:56.961Z,17.60
2017-08-09T21:43:25.423Z,17.60
2017-08-09T21:45:53.874Z,17.50
2017-08-09T21:48:21.762Z,17.50
2017-08-09T21:50:49.301Z,17.50
2017-08-09T21:53:18.913Z,17.50
2017-08-09T21:55:46.480Z,17.50
2017-08-09T21:58:14.955Z,17.50
2017-08-09T22:00:43.776Z,17.50
2017-08-09T22:03:11.931Z,17.50
2017-08-09T22:05:40.206Z,17.50
2017-08-09T22:08:09.233Z,17.50
2017-08-09T22:10:37.722Z,17.50
2017-08-09T22:13:07.498Z,17.40
2017-08-09T22:15:35.037Z,17.40
2017-08-09T22:18:06.438Z,17.40
2017-08-09T22:20:34.788Z,17.40
2017-08-09T22:23:05.698Z,17.40
2017-08-09T22:25:35.346Z,17.40
2017-08-09T22:28:03.034Z,17.40
2017-08-09T22:30:31.609Z,17.40
2017-08-09T22:33:00.006Z,17.40
2017-08-09T22:35:29.377Z,17.30
2017-08-09T22:38:04.065Z,17.30
2017-08-09T22:40:32.363Z,17.30
2017-08-09T22:43:00.932Z,17.30
2017-08-09T22:45:28.516Z,17.30
2017-08-09T22:47:56.045Z,17.30
2017-08-09T22:50:24.386Z,17.30
2017-08-09T22:52:51.917Z,17.30
2017-08-09T22:55:24.107Z,17.30
2017-08-09T22:57:51.693Z,17.30
2017-08-09T23:00:19.626Z,17.30
2017-08-09T23:02:48.498Z,17.30
2017-08-09T23:05:16.029Z,17.30
2017-08-09T23:07:49.604Z,17.30
2017-08-09T23:10:17.180Z,17.30
2017-08-09T23:12:47.433Z,17.30
2017-08-09T23:15:14.969Z,17.30
2017-08-09T23:17:44.331Z,17.30
2017-08-09T23:20:12.609Z,17.20
2017-08-09T23:22:40.913Z,17.30
2017-08-09T23:25:08.937Z,17.30
2017-08-09T23:27:41.669Z,17.30
2017-08-09T23:30:10.099Z,17.30
2017-08-09T23:32:40.809Z,17.20
2017-08-09T23:35:08.625Z,17.30
2017-08-09T23:37:37.482Z,17.30
2017-08-09T23:40:05.057Z,17.30
2017-08-09T23:42:36.106Z,17.30
2017-08-09T23:45:03.678Z,17.30
2017-08-09T23:47:32.855Z,17.30
2017-08-09T23:50:01.194Z,17.20
2017-08-09T23:52:30.129Z,17.20
2017-08-09T23:55:00.353Z,17.30
2017-08-09T23:57:30.039Z,17.20
2017-08-09T23:59:59.405Z,17.20
